Time;durP1;ratioP1;P1;durP2;ratioP2;P2;SDS_P1;SDS_P2;PMS_P1;PMS_P2;Temp;Humidity;BMP_temperature;BMP_pressure;BME280_temperature;BME280_humidity;BME280_pressure;Samples;Min_cycle;Max_cycle;Signal;HPM_P1;HPM_P2
2022/10/13 00:00:33;;;;;;;20.90;16.52;;;21.00;92.20;;;;;;5053696;28;20095;-75
2022/10/13 00:03:01;;;;;;;22.88;17.10;;;21.00;92.10;;;;;;5053471;28;20021;-75
2022/10/13 00:05:28;;;;;;;21.75;15.90;;;21.00;92.20;;;;;;5053626;28;20128;-73
2022/10/13 00:07:55;;;;;;;22.50;17.40;;;21.00;92.10;;;;;;5053407;28;20029;-74
2022/10/13 00:10:20;;;;;;;22.20;16.90;;;20.90;92.20;;;;;;5053469;28;20075;-74
2022/10/13 00:12:46;;;;;;;20.58;17.17;;;20.90;92.30;;;;;;5053808;28;20425;-69
2022/10/13 00:15:12;;;;;;;20.23;16.63;;;20.90;92.40;;;;;;5053012;28;20387;-68
2022/10/13 00:17:38;;;;;;;21.02;16.52;;;20.80;92.40;;;;;;5053357;28;20032;-69
2022/10/13 00:20:05;;;;;;;19.10;15.70;;;20.80;92.30;;;;;;5053045;28;20556;-70
2022/10/13 00:22:31;;;;;;;19.95;15.65;;;20.80;92.30;;;;;;5053245;28;20021;-69
2022/10/13 00:24:56;;;;;;;20.70;16.15;;;20.80;92.40;;;;;;5053070;28;20524;-70
2022/10/13 00:27:22;;;;;;;18.60;15.25;;;20.70;92.50;;;;;;5053188;28;20029;-71
2022/10/13 00:29:48;;;;;;;22.50;15.38;;;20.70;92.50;;;;;;5053068;28;20054;-70
2022/10/13 00:32:13;;;;;;;19.75;15.30;;;20.70;92.60;;;;;;5053217;28;20390;-70
2022/10/13 00:34:39;;;;;;;17.60;14.32;;;20.70;92.60;;;;;;5034992;28;20429;-69
2022/10/13 00:37:05;;;;;;;20.30;16.08;;;20.70;92.60;;;;;;5053043;28;20025;-69
2022/10/13 00:39:31;;;;;;;19.77;15.32;;;20.70;92.50;;;;;;5052870;28;20029;-70
2022/10/13 00:41:58;;;;;;;18.35;15.38;;;20.60;92.50;;;;;;5053028;28;20025;-69
2022/10/13 00:45:02;;;;;;;17.00;15.20;;;20.60;92.50;;;;;;5052971;28;20470;-68
2022/10/13 00:47:35;;;;;;;16.52;14.68;;;20.60;92.80;;;;;;5053123;28;20027;-68
2022/10/13 00:50:01;;;;;;;20.33;15.95;;;20.50;92.80;;;;;;5053102;28;20028;-69
2022/10/13 00:52:28;;;;;;;19.23;14.95;;;20.50;92.50;;;;;;5053208;28;20032;-69
2022/10/13 00:54:55;;;;;;;17.90;14.80;;;20.50;92.40;;;;;;5053070;28;20037;-70
2022/10/13 00:57:21;;;;;;;19.70;15.25;;;20.50;92.60;;;;;;5034842;28;20052;-69
2022/10/13 00:59:48;;;;;;;20.88;16.85;;;20.40;92.60;;;;;;5052902;28;20021;-69
2022/10/13 01:02:14;;;;;;;17.98;15.68;;;20.40;92.50;;;;;;5052856;28;20432;-69
2022/10/13 01:04:43;;;;;;;17.67;15.73;;;20.40;92.60;;;;;;5052946;28;20079;-70
2022/10/13 01:07:09;;;;;;;17.35;15.43;;;20.40;92.50;;;;;;5052825;28;20029;-70
2022/10/13 01:09:36;;;;;;;22.55;15.48;;;20.40;92.50;;;;;;5052676;28;20036;-70
2022/10/13 01:12:37;;;;;;;21.67;14.25;;;20.30;92.40;;;;;;5056510;28;20099;-69
2022/10/13 01:15:25;;;;;;;18.75;14.95;;;20.30;92.70;;;;;;5018246;28;20041;-70
2022/10/13 01:18:17;;;;;;;15.50;13.35;;;20.30;92.60;;;;;;5056826;28;20508;-70
2022/10/13 01:21:24;;;;;;;20.85;12.57;;;20.30;92.60;;;;;;5056616;28;20528;-69
2022/10/13 01:23:53;;;;;;;15.77;12.88;;;20.30;92.60;;;;;;5044229;28;20111;-68
2022/10/13 01:26:46;;;;;;;16.42;13.00;;;20.30;92.50;;;;;;5056456;28;20029;-70
2022/10/13 01:29:12;;;;;;;15.25;11.73;;;20.30;92.70;;;;;;5056902;28;20476;-69
2022/10/13 01:31:46;;;;;;;15.70;11.98;;;20.30;92.30;;;;;;5056342;28;20112;-70
2022/10/13 01:34:23;;;;;;;;;;;20.30;92.20;;;;;;5056967;28;20037;-71
2022/10/13 01:37:02;;;;;;;17.63;12.40;;;20.30;92.70;;;;;;5056455;28;19999;-71
2022/10/13 01:39:36;;;;;;;15.25;11.85;;;20.30;92.40;;;;;;5056205;28;20494;-71
2022/10/13 01:42:12;;;;;;;15.25;11.77;;;20.30;92.40;;;;;;5056282;28;20047;-71
2022/10/13 01:44:42;;;;;;;14.25;11.10;;;20.30;92.20;;;;;;5055911;28;20367;-72
2022/10/13 01:47:11;;;;;;;14.13;11.35;;;20.30;92.10;;;;;;5038609;28;20025;-68
2022/10/13 01:49:37;;;;;;;15.55;11.63;;;20.30;92.10;;;;;;5056076;28;20021;-70
2022/10/13 01:52:11;;;;;;;15.98;12.10;;;20.30;92.10;;;;;;5056058;28;20028;-71
2022/10/13 01:54:36;;;;;;;13.95;11.15;;;20.30;92.30;;;;;;5056106;28;20065;-70
2022/10/13 01:57:02;;;;;;;17.88;11.70;;;20.30;92.10;;;;;;5055425;28;20146;-70
2022/10/13 01:59:32;;;;;;;13.32;10.90;;;20.30;92.10;;;;;;5055676;28;20502;-72
2022/10/13 02:02:03;;;;;;;14.30;10.93;;;20.30;92.00;;;;;;5055491;28;20489;-70
2022/10/13 02:04:45;;;;;;;18.95;12.73;;;20.30;92.30;;;;;;5055740;28;20021;-69
2022/10/13 02:07:22;;;;;;;16.33;10.98;;;20.30;92.20;;;;;;5055520;28;20056;-70
2022/10/13 02:10:16;;;;;;;15.60;10.57;;;20.30;92.10;;;;;;5055512;28;20036;-68
2022/10/13 02:12:54;;;;;;;12.80;10.98;;;20.30;92.30;;;;;;5055477;28;20051;-72
2022/10/13 02:15:49;;;;;;;15.75;12.20;;;20.30;92.30;;;;;;5037473;28;20528;-71
2022/10/13 02:18:20;;;;;;;17.70;11.45;;;20.30;92.10;;;;;;5052793;28;20055;-70
2022/10/13 02:20:46;;;;;;;14.30;11.07;;;20.30;92.10;;;;;;5055785;28;20474;-69
2022/10/13 02:23:15;;;;;;;18.00;11.55;;;20.30;92.10;;;;;;5053863;28;20017;-71
2022/10/13 02:25:42;;;;;;;13.02;11.07;;;20.20;92.00;;;;;;5037471;28;20450;-71
2022/10/13 02:28:09;;;;;;;17.55;11.27;;;20.20;92.20;;;;;;5055355;28;20075;-70
2022/10/13 02:30:38;;;;;;;18.92;12.15;;;20.10;92.30;;;;;;5037264;28;20045;-71
2022/10/13 02:33:04;;;;;;;19.95;11.57;;;20.10;92.30;;;;;;5055080;28;20025;-73
2022/10/13 02:35:31;;;;;;;16.15;12.02;;;20.00;92.40;;;;;;5055238;28;20036;-70
2022/10/13 02:37:57;;;;;;;15.77;11.15;;;20.00;92.30;;;;;;5037185;28;20025;-69
2022/10/13 02:40:23;;;;;;;17.30;11.93;;;20.00;92.30;;;;;;5055027;28;20492;-69
2022/10/13 02:42:49;;;;;;;15.00;11.27;;;20.00;92.30;;;;;;5054948;28;20063;-70
2022/10/13 02:45:15;;;;;;;17.48;11.27;;;20.10;92.30;;;;;;5054610;28;20060;-69
2022/10/13 02:47:41;;;;;;;19.13;11.40;;;20.10;92.30;;;;;;5054745;28;20035;-68
2022/10/13 02:50:07;;;;;;;15.57;11.40;;;20.10;92.30;;;;;;5054855;28;20017;-70
2022/10/13 02:52:32;;;;;;;16.05;11.13;;;20.10;92.40;;;;;;5054659;28;20029;-70
2022/10/13 02:54:58;;;;;;;15.25;11.13;;;20.10;92.30;;;;;;5054503;28;20033;-69
2022/10/13 02:57:24;;;;;;;17.77;10.25;;;20.20;92.30;;;;;;5054687;28;20471;-70
2022/10/13 02:59:50;;;;;;;15.35;10.25;;;20.20;92.30;;;;;;5054558;28;20059;-69
2022/10/13 03:02:16;;;;;;;13.65;10.38;;;20.10;92.20;;;;;;5054695;28;20025;-69
2022/10/13 03:04:41;;;;;;;12.80;10.15;;;20.10;92.20;;;;;;5054591;28;20025;-71
2022/10/13 03:07:07;;;;;;;16.88;10.50;;;20.10;92.10;;;;;;5054458;28;20104;-70
2022/10/13 03:09:33;;;;;;;15.82;10.32;;;20.10;92.10;;;;;;5054495;28;20033;-71
2022/10/13 03:11:58;;;;;;;16.10;10.43;;;20.10;92.10;;;;;;5054332;28;20133;-72
2022/10/13 03:14:24;;;;;;;16.30;11.43;;;20.10;92.10;;;;;;5054620;28;20037;-75
2022/10/13 03:16:50;;;;;;;16.75;11.02;;;20.10;92.10;;;;;;5054164;28;20021;-73
2022/10/13 03:19:15;;;;;;;17.52;11.35;;;20.10;92.10;;;;;;5054469;28;20040;-74
2022/10/13 03:21:41;;;;;;;13.60;11.65;;;20.10;92.10;;;;;;5054069;28;20088;-74
2022/10/13 03:24:07;;;;;;;17.48;11.77;;;20.10;92.20;;;;;;5054157;28;20059;-73
2022/10/13 03:26:34;;;;;;;15.57;10.80;;;20.00;92.20;;;;;;5054058;28;20029;-75
2022/10/13 03:29:00;;;;;;;14.20;11.18;;;20.00;92.20;;;;;;5054052;28;20021;-74
2022/10/13 03:31:26;;;;;;;14.00;11.63;;;19.90;92.30;;;;;;5054248;28;20394;-73
2022/10/13 03:33:51;;;;;;;18.67;11.95;;;19.90;92.40;;;;;;5053692;28;20029;-73
2022/10/13 03:36:17;;;;;;;15.98;11.48;;;19.90;92.40;;;;;;5053838;28;20029;-75
2022/10/13 03:38:43;;;;;;;17.75;11.27;;;19.90;92.50;;;;;;5053891;28;20056;-73
2022/10/13 03:41:12;;;;;;;16.58;11.88;;;19.90;92.50;;;;;;5053865;28;20100;-75
2022/10/13 03:43:38;;;;;;;16.08;11.25;;;19.80;92.50;;;;;;5053706;28;20028;-75
2022/10/13 03:46:05;;;;;;;13.82;10.85;;;19.80;92.50;;;;;;5053641;28;20025;-74
2022/10/13 03:48:32;;;;;;;14.18;11.50;;;19.80;92.60;;;;;;5053915;28;20099;-74
2022/10/13 03:50:58;;;;;;;16.85;10.95;;;19.80;92.60;;;;;;5053842;28;20096;-74
2022/10/13 03:53:24;;;;;;;16.58;11.45;;;19.80;92.60;;;;;;5053588;28;20109;-75
2022/10/13 03:55:55;;;;;;;16.17;11.32;;;19.80;92.70;;;;;;5053621;28;20036;-71
2022/10/13 03:58:22;;;;;;;18.85;11.48;;;19.80;92.60;;;;;;5053299;28;20080;-69
2022/10/13 04:00:49;;;;;;;15.75;10.93;;;19.80;92.60;;;;;;5053494;28;20021;-70
2022/10/13 04:03:15;;;;;;;16.67;10.27;;;19.80;92.50;;;;;;5036394;28;20032;-71
2022/10/13 04:05:42;;;;;;;15.65;10.73;;;19.80;92.60;;;;;;5053588;28;20079;-70
2022/10/13 04:08:11;;;;;;;16.92;11.13;;;19.90;92.60;;;;;;5053387;28;20032;-70
2022/10/13 04:10:37;;;;;;;16.10;10.98;;;19.80;92.70;;;;;;5053119;28;20032;-69
2022/10/13 04:13:04;;;;;;;13.20;9.85;;;19.80;92.50;;;;;;5035243;28;20358;-70
2022/10/13 04:15:30;;;;;;;13.18;10.98;;;19.80;92.60;;;;;;5052987;28;20375;-70
2022/10/13 04:17:56;;;;;;;13.80;10.45;;;19.80;92.70;;;;;;5053271;28;20028;-69
2022/10/13 04:20:22;;;;;;;13.18;11.07;;;19.70;92.60;;;;;;5053123;28;20416;-69
2022/10/13 04:22:47;;;;;;;13.60;10.15;;;19.80;92.60;;;;;;5035364;28;20116;-69
2022/10/13 04:25:13;;;;;;;14.68;10.48;;;19.80;92.50;;;;;;5053071;28;20126;-69
2022/10/13 04:27:39;;;;;;;17.23;10.75;;;19.80;92.60;;;;;;5053035;28;20447;-69
2022/10/13 04:30:06;;;;;;;13.70;9.80;;;19.80;92.60;;;;;;5053056;28;20067;-71
2022/10/13 04:32:32;;;;;;;14.82;10.68;;;19.80;92.60;;;;;;5052975;28;20013;-70
2022/10/13 04:34:58;;;;;;;11.73;9.57;;;19.80;92.50;;;;;;5035192;28;20071;-71
2022/10/13 04:37:24;;;;;;;13.20;9.35;;;19.70;92.40;;;;;;5035192;28;20028;-70
2022/10/13 04:39:49;;;;;;;12.30;9.20;;;19.70;92.30;;;;;;5053128;28;20056;-69
2022/10/13 04:42:15;;;;;;;12.30;9.23;;;19.80;92.30;;;;;;5035050;28;20063;-69
2022/10/13 04:44:41;;;;;;;12.60;9.32;;;19.70;92.10;;;;;;5052893;28;20366;-70
2022/10/13 04:47:07;;;;;;;18.48;11.75;;;19.80;92.30;;;;;;5057036;28;20122;-70
2022/10/13 04:49:33;;;;;;;12.40;10.60;;;19.80;92.20;;;;;;5057133;28;20492;-70
2022/10/13 04:51:59;;;;;;;13.27;10.85;;;19.80;92.20;;;;;;5057094;28;20474;-70
2022/10/13 04:54:25;;;;;;;20.38;10.43;;;19.80;92.30;;;;;;5056778;28;20044;-70
2022/10/13 04:56:50;;;;;;;13.07;10.38;;;19.80;92.30;;;;;;5056755;28;20118;-70
2022/10/13 04:59:16;;;;;;;13.45;10.63;;;19.90;92.40;;;;;;5056641;28;20029;-70
2022/10/13 05:01:42;;;;;;;12.95;10.07;;;19.80;92.40;;;;;;5056793;28;20528;-70
2022/10/13 05:04:09;;;;;;;14.63;11.27;;;19.80;92.50;;;;;;5056841;28;20490;-69
2022/10/13 05:06:37;;;;;;;14.77;11.55;;;19.80;92.60;;;;;;5056576;28;20037;-70
2022/10/13 05:09:03;;;;;;;20.27;11.85;;;19.80;92.70;;;;;;5057079;28;20029;-69
2022/10/13 05:11:31;;;;;;;16.08;11.68;;;19.70;92.90;;;;;;5056702;28;20029;-70
2022/10/13 05:13:58;;;;;;;15.73;11.70;;;19.70;93.20;;;;;;5039061;28;20025;-71
2022/10/13 05:16:24;;;;;;;15.77;11.95;;;19.70;93.10;;;;;;5056604;28;20040;-71
2022/10/13 05:18:52;;;;;;;16.52;11.02;;;19.70;93.20;;;;;;5056675;28;20427;-70
2022/10/13 05:21:25;;;;;;;16.98;11.25;;;19.70;93.40;;;;;;5038467;28;20403;-68
2022/10/13 05:23:54;;;;;;;17.10;12.57;;;19.70;93.60;;;;;;5038704;28;20033;-71
2022/10/13 05:26:30;;;;;;;16.35;11.93;;;19.60;93.70;;;;;;5056198;28;20497;-70
2022/10/13 05:29:01;;;;;;;14.30;11.25;;;19.60;94.00;;;;;;5038548;28;20035;-70
2022/10/13 05:31:29;;;;;;;15.70;12.27;;;19.60;94.00;;;;;;5056325;28;20063;-70
2022/10/13 05:33:55;;;;;;;15.35;11.63;;;19.50;94.10;;;;;;5056461;28;20036;-71
2022/10/13 05:36:22;;;;;;;17.48;12.30;;;19.50;94.30;;;;;;5056195;28;20032;-70
2022/10/13 05:38:56;;;;;;;16.25;12.43;;;19.50;94.50;;;;;;5055944;28;20029;-69
2022/10/13 05:41:22;;;;;;;16.00;12.20;;;19.40;94.60;;;;;;5056079;28;20108;-70
2022/10/13 05:43:50;;;;;;;15.75;13.05;;;19.50;94.80;;;;;;5056020;28;20032;-70
2022/10/13 05:46:15;;;;;;;18.25;12.90;;;19.50;94.90;;;;;;5055998;28;20033;-69
2022/10/13 05:48:41;;;;;;;15.68;13.30;;;19.50;95.00;;;;;;5055959;28;20445;-70
2022/10/13 05:51:13;;;;;;;19.08;13.98;;;19.50;95.10;;;;;;5056146;28;20048;-72
2022/10/13 05:53:43;;;;;;;18.05;13.32;;;19.50;95.20;;;;;;5055725;28;20025;-70
2022/10/13 05:56:14;;;;;;;18.98;13.05;;;19.50;95.30;;;;;;5057272;28;20028;-74
2022/10/13 05:58:46;;;;;;;18.05;12.80;;;19.50;95.30;;;;;;5055767;28;20056;-70
2022/10/13 06:01:17;;;;;;;19.40;13.32;;;19.50;95.40;;;;;;5055832;28;20025;-70
2022/10/13 06:03:45;;;;;;;17.08;12.68;;;19.50;95.50;;;;;;5055801;28;20025;-69
2022/10/13 06:06:11;;;;;;;16.35;12.82;;;19.50;95.50;;;;;;5055928;28;20066;-72
2022/10/13 06:08:37;;;;;;;18.05;13.32;;;19.40;95.70;;;;;;5055760;28;20377;-74
2022/10/13 06:11:04;;;;;;;15.38;12.35;;;19.40;96.00;;;;;;5055959;28;20028;-71
2022/10/13 06:13:30;;;;;;;19.60;14.90;;;19.30;95.90;;;;;;5056350;28;20032;-72
2022/10/13 06:15:55;;;;;;;19.65;13.57;;;19.30;96.10;;;;;;5056455;28;20039;-70
2022/10/13 06:18:21;;;;;;;18.38;13.82;;;19.30;96.20;;;;;;5037362;28;20021;-71
2022/10/13 06:20:47;;;;;;;24.13;14.60;;;19.30;96.30;;;;;;5055305;28;20363;-71
2022/10/13 06:23:14;;;;;;;21.65;13.88;;;19.40;96.40;;;;;;5037252;28;20021;-71
2022/10/13 06:25:50;;;;;;;17.63;13.88;;;19.40;96.40;;;;;;5055064;28;20029;-73
2022/10/13 06:28:19;;;;;;;18.80;14.57;;;19.40;96.50;;;;;;5055216;28;20060;-69
2022/10/13 06:30:52;;;;;;;16.67;13.20;;;19.40;96.60;;;;;;5055154;28;20100;-70
2022/10/13 06:33:18;;;;;;;19.80;13.60;;;19.40;96.60;;;;;;5055091;28;20027;-69
2022/10/13 06:35:46;;;;;;;17.33;14.48;;;19.40;96.70;;;;;;5054730;28;20111;-70
2022/10/13 06:38:12;;;;;;;18.95;13.68;;;19.40;96.70;;;;;;5054706;28;20374;-70
2022/10/13 06:40:39;;;;;;;17.15;13.48;;;19.40;96.80;;;;;;5054835;28;20025;-72
2022/10/13 06:43:04;;;;;;;21.65;14.60;;;19.30;96.80;;;;;;5036850;28;20048;-73
2022/10/13 06:45:30;;;;;;;19.00;14.18;;;19.30;96.90;;;;;;5036870;28;20021;-71
2022/10/13 06:47:56;;;;;;;18.55;14.00;;;19.30;96.90;;;;;;5054591;28;20028;-71
2022/10/13 06:50:22;;;;;;;17.92;13.48;;;19.30;96.80;;;;;;5054553;28;20032;-70
2022/10/13 06:52:48;;;;;;;18.15;14.48;;;19.30;97.00;;;;;;5054057;28;20453;-70
2022/10/13 06:55:14;;;;;;;24.50;18.08;;;19.30;97.10;;;;;;5053631;28;20044;-70
2022/10/13 06:57:40;;;;;;;17.05;14.55;;;19.30;97.00;;;;;;5054079;28;20120;-71
2022/10/13 07:00:06;;;;;;;17.90;13.73;;;19.30;97.10;;;;;;5053916;28;20032;-71
2022/10/13 07:02:32;;;;;;;23.48;13.88;;;19.20;97.20;;;;;;5054084;28;20025;-72
2022/10/13 07:04:57;;;;;;;18.52;14.60;;;19.20;97.40;;;;;;5036107;28;20029;-70
2022/10/13 07:07:23;;;;;;;19.77;14.35;;;19.20;97.50;;;;;;5035877;28;20104;-74
2022/10/13 07:09:49;;;;;;;19.10;15.00;;;19.10;97.50;;;;;;5053677;28;20033;-73
2022/10/13 07:12:16;;;;;;;17.95;13.55;;;19.10;97.70;;;;;;5035499;28;20037;-74
2022/10/13 07:14:42;;;;;;;16.25;13.73;;;19.10;97.70;;;;;;5054119;28;20117;-73
2022/10/13 07:17:08;;;;;;;15.00;13.32;;;19.00;97.70;;;;;;5054012;28;20052;-70
2022/10/13 07:19:34;;;;;;;17.63;14.48;;;18.90;97.60;;;;;;5035892;28;20055;-71
2022/10/13 07:21:59;;;;;;;18.88;14.52;;;18.90;97.60;;;;;;5053874;28;20527;-70
2022/10/13 07:24:25;;;;;;;18.98;14.00;;;18.90;97.80;;;;;;5053827;28;20486;-71
2022/10/13 07:26:51;;;;;;;16.30;13.02;;;18.90;97.80;;;;;;5053881;28;20021;-74
2022/10/13 07:29:17;;;;;;;16.50;14.65;;;18.90;97.80;;;;;;5053961;28;20047;-75
2022/10/13 07:31:44;;;;;;;18.38;13.82;;;19.00;98.00;;;;;;5054141;28;20482;-74
2022/10/13 07:34:10;;;;;;;17.92;14.32;;;19.00;97.90;;;;;;5053604;28;20021;-74
2022/10/13 07:36:40;;;;;;;20.20;15.55;;;19.00;97.90;;;;;;5053735;28;20033;-71
2022/10/13 07:39:07;;;;;;;19.65;14.88;;;19.00;97.90;;;;;;5036264;28;20058;-71
2022/10/13 07:41:33;;;;;;;20.23;14.93;;;19.00;98.20;;;;;;5053584;28;20025;-69
2022/10/13 07:43:59;;;;;;;21.45;16.35;;;19.00;98.30;;;;;;5053294;28;20032;-72
2022/10/13 07:46:25;;;;;;;19.80;15.90;;;19.00;98.50;;;;;;5053570;28;20025;-71
2022/10/13 07:48:54;;;;;;;21.70;15.02;;;19.00;98.30;;;;;;5053428;28;20068;-70
2022/10/13 07:51:21;;;;;;;22.50;16.35;;;19.10;98.40;;;;;;5053604;28;20323;-69
2022/10/13 07:53:47;;;;;;;24.02;16.13;;;19.00;98.40;;;;;;5053192;28;20028;-72
2022/10/13 07:56:14;;;;;;;18.13;15.45;;;19.10;98.40;;;;;;5053008;28;20044;-71
2022/10/13 07:58:43;;;;;;;19.83;15.85;;;19.10;98.60;;;;;;5035314;28;20029;-70
2022/10/13 08:01:09;;;;;;;19.98;15.35;;;19.00;98.40;;;;;;5053237;28;20107;-70
2022/10/13 08:03:35;;;;;;;20.10;15.05;;;19.00;98.30;;;;;;5053001;28;20052;-71
2022/10/13 08:06:03;;;;;;;22.20;15.63;;;19.00;98.40;;;;;;5053050;28;20028;-69
2022/10/13 08:08:29;;;;;;;19.92;14.98;;;19.00;98.40;;;;;;5053032;28;20031;-70
2022/10/13 08:10:59;;;;;;;20.33;15.27;;;19.00;98.30;;;;;;5052998;28;20056;-69
2022/10/13 08:13:25;;;;;;;21.30;15.07;;;19.00;98.40;;;;;;5053031;28;20025;-71
2022/10/13 08:15:50;;;;;;;19.35;14.38;;;19.00;98.40;;;;;;5053003;28;20541;-70
2022/10/13 08:18:16;;;;;;;23.45;14.85;;;19.10;98.30;;;;;;5052869;28;20029;-70
2022/10/13 08:20:44;;;;;;;23.63;15.18;;;19.00;98.20;;;;;;5035017;28;20037;-69
2022/10/13 08:23:12;;;;;;;16.55;14.00;;;19.00;98.30;;;;;;5052834;28;20035;-69
2022/10/13 08:25:39;;;;;;;20.65;15.30;;;19.00;98.40;;;;;;5052916;28;20083;-70
2022/10/13 08:28:14;;;;;;;18.75;14.20;;;19.00;98.40;;;;;;5052805;28;20021;-72
2022/10/13 08:30:40;;;;;;;17.90;14.68;;;19.00;98.40;;;;;;5052863;28;20033;-71
2022/10/13 08:33:05;;;;;;;18.77;13.65;;;19.00;98.30;;;;;;5052532;28;20032;-70
2022/10/13 08:35:31;;;;;;;16.75;13.02;;;19.00;98.20;;;;;;5052411;28;20033;-70
2022/10/13 08:37:57;;;;;;;17.73;13.57;;;18.90;97.90;;;;;;5052572;28;20119;-70
2022/10/13 08:40:23;;;;;;;19.27;13.95;;;18.90;98.00;;;;;;5034493;28;20025;-69
2022/10/13 08:42:49;;;;;;;18.92;14.55;;;18.90;98.00;;;;;;5052553;28;20059;-70
2022/10/13 08:45:22;;;;;;;18.33;14.88;;;18.90;98.00;;;;;;5052391;28;20505;-71
2022/10/13 08:48:00;;;;;;;19.83;14.80;;;18.90;98.20;;;;;;5052260;28;20025;-71
2022/10/13 08:50:31;;;;;;;22.77;14.45;;;18.90;98.20;;;;;;5052680;28;20061;-71
2022/10/13 08:53:12;;;;;;;17.20;14.07;;;19.00;98.40;;;;;;5052312;28;20104;-72
2022/10/13 08:55:49;;;;;;;18.13;13.98;;;19.00;98.20;;;;;;5034328;28;20040;-71
2022/10/13 08:58:22;;;;;;;19.13;14.77;;;19.10;98.40;;;;;;5052093;28;20049;-70
2022/10/13 09:01:11;;;;;;;20.55;14.85;;;19.10;98.40;;;;;;5034371;28;20095;-71
2022/10/13 09:04:17;;;;;;;17.13;14.02;;;19.10;98.20;;;;;;5051660;28;20386;-72
2022/10/13 09:07:13;;;;;;;19.63;13.82;;;19.10;98.10;;;;;;5038690;28;20033;-74
2022/10/13 09:09:39;;;;;;;22.13;14.15;;;19.10;98.20;;;;;;5041947;23;20045;-74
2022/10/13 09:12:05;;;;;;;20.17;14.57;;;19.10;98.20;;;;;;5052513;28;20083;-73
2022/10/13 09:14:36;;;;;;;21.23;14.95;;;19.10;98.10;;;;;;5052334;28;20037;-72
2022/10/13 09:17:15;;;;;;;20.42;15.18;;;19.10;98.20;;;;;;5052006;28;20025;-74
2022/10/13 09:19:41;;;;;;;20.17;14.63;;;19.10;98.20;;;;;;5051873;28;20029;-72
2022/10/13 09:22:32;;;;;;;23.23;15.13;;;19.10;98.00;;;;;;5051912;28;20063;-80
2022/10/13 09:25:10;;;;;;;19.50;13.68;;;19.10;98.20;;;;;;5051949;28;20093;-79
2022/10/13 09:27:51;;;;;;;22.35;14.35;;;19.10;98.40;;;;;;5052134;28;20029;-75
2022/10/13 09:30:37;;;;;;;23.90;15.05;;;19.10;98.20;;;;;;5052366;28;20021;-80
2022/10/13 09:33:10;;;;;;;21.55;14.93;;;19.00;98.00;;;;;;5055911;28;20405;-77
2022/10/13 09:35:42;;;;;;;17.73;13.32;;;19.00;98.10;;;;;;5056378;28;20146;-76
2022/10/13 09:38:20;;;;;;;21.75;14.25;;;19.00;98.20;;;;;;5056693;28;20029;-78
2022/10/13 09:41:05;;;;;;;24.42;15.18;;;19.00;98.20;;;;;;5056044;28;20049;-81
2022/10/13 09:43:40;;;;;;;26.33;14.38;;;19.00;98.20;;;;;;5057395;28;20036;-77
2022/10/13 09:46:25;;;;;;;22.67;14.07;;;19.10;98.30;;;;;;5056217;28;20035;-75
2022/10/13 09:48:58;;;;;;;21.30;14.35;;;19.20;98.00;;;;;;5062390;28;20059;-75
2022/10/13 09:51:30;;;;;;;23.25;15.23;;;19.20;98.00;;;;;;5041003;28;20029;-75
2022/10/13 09:53:55;;;;;;;23.05;15.40;;;19.30;98.10;;;;;;5055525;28;20040;-80
2022/10/13 09:56:46;;;;;;;21.33;14.93;;;19.30;97.90;;;;;;5055025;28;20025;-80
2022/10/13 09:59:32;;;;;;;19.23;14.38;;;19.30;97.80;;;;;;5054185;28;20090;-83
2022/10/13 10:02:02;;;;;;;21.45;15.05;;;19.30;97.80;;;;;;5055137;28;20079;-79
2022/10/13 10:04:36;;;;;;;30.00;18.17;;;19.30;97.80;;;;;;5055531;28;20044;-80
2022/10/13 10:07:11;;;;;;;20.23;15.32;;;19.30;97.70;;;;;;5054979;28;20108;-82
2022/10/13 10:09:43;;;;;;;19.20;15.13;;;19.40;97.60;;;;;;5054843;28;20020;-81
2022/10/13 10:12:18;;;;;;;21.23;15.25;;;19.40;97.50;;;;;;5055341;28;20048;-80
2022/10/13 10:14:43;;;;;;;20.40;15.27;;;19.50;97.40;;;;;;5054956;28;20033;-76
2022/10/13 10:17:40;;;;;;;21.05;15.27;;;19.60;97.40;;;;;;5055252;28;20025;-78
2022/10/13 10:20:21;;;;;;;21.17;15.65;;;19.70;97.30;;;;;;5054870;28;20608;-71
2022/10/13 10:23:03;;;;;;;19.85;14.95;;;19.90;97.10;;;;;;5054898;28;20052;-77
2022/10/13 10:25:36;;;;;;;20.85;15.27;;;20.00;96.80;;;;;;5054282;28;20032;-80
2022/10/13 10:28:13;;;;;;;17.33;15.35;;;20.10;96.70;;;;;;5054794;28;20039;-74
2022/10/13 10:30:56;;;;;;;17.10;13.73;;;20.30;96.60;;;;;;5054566;28;20025;-77
2022/10/13 10:33:43;;;;;;;20.00;14.63;;;20.40;96.20;;;;;;5054404;28;20108;-74
2022/10/13 10:36:18;;;;;;;18.67;14.38;;;20.50;95.80;;;;;;5054403;28;20043;-75
2022/10/13 10:39:04;;;;;;;17.33;14.70;;;20.60;95.80;;;;;;5054371;28;20032;-79
2022/10/13 10:41:51;;;;;;;20.13;14.45;;;20.70;95.70;;;;;;5054239;28;20083;-77
2022/10/13 10:44:23;;;;;;;17.80;13.57;;;21.00;95.60;;;;;;5053069;28;20040;-72
2022/10/13 10:46:50;;;;;;;19.23;14.15;;;20.90;95.50;;;;;;5054060;28;20104;-75
2022/10/13 10:49:22;;;;;;;15.85;12.85;;;20.80;95.30;;;;;;5054365;28;20437;-79
2022/10/13 10:51:48;;;;;;;15.57;12.95;;;20.60;95.10;;;;;;5055357;28;20383;-78
2022/10/13 10:54:39;;;;;;;17.80;12.02;;;20.60;95.30;;;;;;5054785;28;20075;-81
2022/10/13 10:57:37;;;;;;;19.73;12.70;;;20.60;95.30;;;;;;5069624;22;20087;-74
2022/10/13 11:00:23;;;;;;;16.73;12.32;;;20.50;95.00;;;;;;5054415;28;20048;-75
2022/10/13 11:03:27;;;;;;;14.57;10.45;;;20.50;94.90;;;;;;5054083;28;20055;-72
2022/10/13 11:06:00;;;;;;;15.93;10.57;;;20.50;94.60;;;;;;4981095;28;20026;-77
2022/10/13 11:08:42;;;;;;;14.60;10.80;;;20.60;94.30;;;;;;5044321;28;20037;-72
2022/10/13 11:11:27;;;;;;;17.45;11.20;;;20.70;94.10;;;;;;5052894;28;20035;-76
2022/10/13 11:13:55;;;;;;;12.55;10.30;;;20.90;93.80;;;;;;5053586;28;20467;-78
2022/10/13 11:16:39;;;;;;;13.75;9.68;;;21.00;93.60;;;;;;5053834;28;20029;-76
2022/10/13 11:19:28;;;;;;;13.30;9.20;;;21.10;93.30;;;;;;5053870;28;20074;-75
2022/10/13 11:21:59;;;;;;;11.95;8.88;;;21.20;93.10;;;;;;5053800;28;20025;-74
2022/10/13 11:24:53;;;;;;;11.25;8.20;;;21.30;92.70;;;;;;5053724;28;20055;-76
2022/10/13 11:27:40;;;;;;;10.57;7.90;;;21.50;92.40;;;;;;5053771;28;20100;-76
2022/10/13 11:30:42;;;;;;;12.27;6.90;;;21.60;91.80;;;;;;5053495;28;20094;-76
2022/10/13 11:33:33;;;;;;;12.15;8.60;;;21.70;91.00;;;;;;5053603;28;20037;-76
2022/10/13 11:36:30;;;;;;;9.13;6.55;;;21.90;90.70;;;;;;5053519;28;20251;-76
2022/10/13 11:39:26;;;;;;;8.93;5.85;;;22.00;89.40;;;;;;5053970;28;20458;-76
2022/10/13 11:42:18;;;;;;;10.13;7.10;;;21.90;89.10;;;;;;5026566;28;20112;-76
2022/10/13 11:44:47;;;;;;;8.73;6.07;;;21.90;88.40;;;;;;5053704;28;20083;-75
2022/10/13 11:47:37;;;;;;;7.53;6.20;;;21.90;87.90;;;;;;5052981;28;20032;-75
2022/10/13 11:50:15;;;;;;;11.68;6.10;;;22.00;88.10;;;;;;5053498;28;20029;-77
2022/10/13 11:53:04;;;;;;;9.10;7.07;;;21.90;87.30;;;;;;5053239;28;20025;-76
2022/10/13 11:55:44;;;;;;;10.90;7.40;;;21.90;88.20;;;;;;5052881;28;20434;-75
2022/10/13 11:58:22;;;;;;;12.77;7.18;;;22.00;88.30;;;;;;5053192;28;20041;-76
2022/10/13 12:01:00;;;;;;;10.77;7.28;;;22.00;88.00;;;;;;5052819;28;20033;-77
2022/10/13 12:03:30;;;;;;;9.82;6.53;;;22.10;88.10;;;;;;5053112;28;20021;-74
2022/10/13 12:06:32;;;;;;;9.73;6.95;;;22.10;87.10;;;;;;5052844;28;20060;-78
2022/10/13 12:08:59;;;;;;;9.20;6.22;;;22.20;87.90;;;;;;5051634;28;20032;-76
2022/10/13 12:11:46;;;;;;;9.15;6.88;;;22.10;86.60;;;;;;5053117;28;20032;-74
2022/10/13 12:14:28;;;;;;;15.25;7.10;;;22.10;86.60;;;;;;5052171;28;20037;-75
2022/10/13 12:16:56;;;;;;;11.68;7.18;;;22.00;87.50;;;;;;5052795;28;20064;-74
2022/10/13 12:19:26;;;;;;;13.20;7.25;;;22.00;87.30;;;;;;5052911;28;20030;-76
2022/10/13 12:21:55;;;;;;;26.30;8.02;;;22.00;87.50;;;;;;5052849;28;20031;-74
2022/10/13 12:24:28;;;;;;;9.90;7.35;;;21.90;88.10;;;;;;5052720;28;20474;-77
2022/10/13 12:26:55;;;;;;;12.52;7.18;;;21.80;87.70;;;;;;5052695;28;20027;-75
2022/10/13 12:29:25;;;;;;;12.02;7.55;;;21.80;88.20;;;;;;5052525;28;20094;-76
2022/10/13 12:31:51;;;;;;;11.95;7.07;;;21.70;88.20;;;;;;5052551;28;20021;-78
2022/10/13 12:34:19;;;;;;;12.18;7.75;;;21.70;88.50;;;;;;5052712;28;20033;-76
2022/10/13 12:36:51;;;;;;;13.02;7.95;;;21.70;88.70;;;;;;5052651;28;20033;-78
2022/10/13 12:39:18;;;;;;;10.65;7.20;;;21.70;88.80;;;;;;5052385;28;20065;-74
2022/10/13 12:41:46;;;;;;;11.35;8.25;;;21.80;88.70;;;;;;5051467;28;20071;-75
2022/10/13 12:44:24;;;;;;;10.10;7.53;;;21.80;88.60;;;;;;5052641;28;20493;-73
2022/10/13 12:46:55;;;;;;;8.55;6.72;;;21.80;88.80;;;;;;5051946;28;20021;-74
2022/10/13 12:49:34;;;;;;;10.15;8.35;;;21.70;88.70;;;;;;5052511;28;20348;-75